sensor_id;sensor_type;location;lat;lon;timestamp;temperature;humidity
17859;DHT22;35426;30.698;104.050;2023-03-01T00:01:51;13.30;99.90
17859;DHT22;35426;30.698;104.050;2023-03-01T00:04:28;13.30;99.90
17859;DHT22;35426;30.698;104.050;2023-03-01T00:07:07;13.40;99.90
17859;DHT22;35426;30.698;104.050;2023-03-01T00:09:43;13.40;99.90
17859;DHT22;35426;30.698;104.050;2023-03-01T00:12:20;13.40;99.90
17859;DHT22;35426;30.698;104.050;2023-03-01T00:15:00;13.40;99.90
17859;DHT22;35426;30.698;104.050;2023-03-01T00:17:38;13.40;99.90
17859;DHT22;35426;30.698;104.050;2023-03-01T00:20:18;13.50;99.90
17859;DHT22;35426;30.698;104.050;2023-03-01T00:22:57;13.40;99.90
17859;DHT22;35426;30.698;104.050;2023-03-01T00:25:34;13.40;99.90
17859;DHT22;35426;30.698;104.050;2023-03-01T00:28:17;13.40;99.90
17859;DHT22;35426;30.698;104.050;2023-03-01T00:30:53;13.50;99.90
17859;DHT22;35426;30.698;104.050;2023-03-01T00:33:29;13.50;99.90
17859;DHT22;35426;30.698;104.050;2023-03-01T00:36:08;13.50;99.90
17859;DHT22;35426;30.698;104.050;2023-03-01T00:38:51;13.50;99.90
17859;DHT22;35426;30.698;104.050;2023-03-01T00:41:34;13.40;99.90
17859;DHT22;35426;30.698;104.050;2023-03-01T00:44:11;13.50;99.90
17859;DHT22;35426;30.698;104.050;2023-03-01T00:46:48;13.60;99.90
17859;DHT22;35426;30.698;104.050;2023-03-01T00:49:32;13.60;99.90
17859;DHT22;35426;30.698;104.050;2023-03-01T00:52:10;13.70;99.90
17859;DHT22;35426;30.698;104.050;2023-03-01T00:54:54;13.70;99.90
17859;DHT22;35426;30.698;104.050;2023-03-01T00:57:33;13.70;99.90
17859;DHT22;35426;30.698;104.050;2023-03-01T01:00:15;13.80;99.90
17859;DHT22;35426;30.698;104.050;2023-03-01T01:02:53;13.80;99.90
17859;DHT22;35426;30.698;104.050;2023-03-01T01:05:30;13.90;99.90
17859;DHT22;35426;30.698;104.050;2023-03-01T01:08:12;13.90;99.90
17859;DHT22;35426;30.698;104.050;2023-03-01T01:10:57;13.90;99.90
17859;DHT22;35426;30.698;104.050;2023-03-01T01:13:33;13.90;99.90
17859;DHT22;35426;30.698;104.050;2023-03-01T01:16:12;13.80;99.90
17859;DHT22;35426;30.698;104.050;2023-03-01T01:18:51;13.90;99.90
17859;DHT22;35426;30.698;104.050;2023-03-01T01:21:28;13.90;99.90
17859;DHT22;35426;30.698;104.050;2023-03-01T01:24:09;13.90;99.90
17859;DHT22;35426;30.698;104.050;2023-03-01T01:26:50;13.90;99.90
17859;DHT22;35426;30.698;104.050;2023-03-01T01:29:27;13.90;99.90
17859;DHT22;35426;30.698;104.050;2023-03-01T01:32:06;14.00;99.90
17859;DHT22;35426;30.698;104.050;2023-03-01T01:34:50;14.00;99.90
17859;DHT22;35426;30.698;104.050;2023-03-01T01:37:26;13.90;99.90
17859;DHT22;35426;30.698;104.050;2023-03-01T01:40:06;13.90;99.90
17859;DHT22;35426;30.698;104.050;2023-03-01T01:42:46;14.00;99.90
17859;DHT22;35426;30.698;104.050;2023-03-01T01:45:34;14.00;99.90
17859;DHT22;35426;30.698;104.050;2023-03-01T01:48:16;14.10;99.90
17859;DHT22;35426;30.698;104.050;2023-03-01T01:50:59;14.20;99.90
17859;DHT22;35426;30.698;104.050;2023-03-01T01:53:37;14.30;99.90
17859;DHT22;35426;30.698;104.050;2023-03-01T01:56:17;14.40;99.90
17859;DHT22;35426;30.698;104.050;2023-03-01T01:58:59;14.30;99.90
17859;DHT22;35426;30.698;104.050;2023-03-01T02:01:35;14.30;99.90
17859;DHT22;35426;30.698;104.050;2023-03-01T02:04:12;14.40;99.90
17859;DHT22;35426;30.698;104.050;2023-03-01T02:06:51;14.40;99.90
17859;DHT22;35426;30.698;104.050;2023-03-01T02:09:29;14.40;99.90
17859;DHT22;35426;30.698;104.050;2023-03-01T02:12:07;14.50;99.90
17859;DHT22;35426;30.698;104.050;2023-03-01T02:14:52;14.50;99.90
17859;DHT22;35426;30.698;104.050;2023-03-01T02:17:28;14.50;99.90
17859;DHT22;35426;30.698;104.050;2023-03-01T02:20:14;14.60;99.90
17859;DHT22;35426;30.698;104.050;2023-03-01T02:23:01;14.70;99.90
17859;DHT22;35426;30.698;104.050;2023-03-01T02:25:45;14.70;99.90
17859;DHT22;35426;30.698;104.050;2023-03-01T02:28:32;14.80;99.90
17859;DHT22;35426;30.698;104.050;2023-03-01T02:31:14;14.80;99.90
17859;DHT22;35426;30.698;104.050;2023-03-01T02:34:08;14.80;99.90
17859;DHT22;35426;30.698;104.050;2023-03-01T02:36:48;14.90;99.90
17859;DHT22;35426;30.698;104.050;2023-03-01T02:39:28;15.00;99.90
17859;DHT22;35426;30.698;104.050;2023-03-01T02:42:09;15.00;99.90
17859;DHT22;35426;30.698;104.050;2023-03-01T02:44:51;15.10;99.90
17859;DHT22;35426;30.698;104.050;2023-03-01T02:47:28;15.40;99.90
17859;DHT22;35426;30.698;104.050;2023-03-01T02:50:14;15.60;99.90
17859;DHT22;35426;30.698;104.050;2023-03-01T02:53:00;15.60;99.90
17859;DHT22;35426;30.698;104.050;2023-03-01T02:55:40;15.50;99.90
17859;DHT22;35426;30.698;104.050;2023-03-01T02:58:18;15.60;99.90
17859;DHT22;35426;30.698;104.050;2023-03-01T03:00:59;15.70;99.90
17859;DHT22;35426;30.698;104.050;2023-03-01T03:03:36;15.70;99.90
17859;DHT22;35426;30.698;104.050;2023-03-01T03:06:14;15.70;99.90
17859;DHT22;35426;30.698;104.050;2023-03-01T03:08:53;15.70;99.90
17859;DHT22;35426;30.698;104.050;2023-03-01T03:11:30;15.60;99.90
17859;DHT22;35426;30.698;104.050;2023-03-01T03:14:07;15.70;99.90
17859;DHT22;35426;30.698;104.050;2023-03-01T03:16:57;15.80;99.90
17859;DHT22;35426;30.698;104.050;2023-03-01T03:19:32;15.80;99.90
17859;DHT22;35426;30.698;104.050;2023-03-01T03:22:10;16.20;99.90
17859;DHT22;35426;30.698;104.050;2023-03-01T03:24:49;16.50;99.90
17859;DHT22;35426;30.698;104.050;2023-03-01T03:27:28;17.00;99.90
17859;DHT22;35426;30.698;104.050;2023-03-01T03:30:05;17.50;99.90
17859;DHT22;35426;30.698;104.050;2023-03-01T03:32:51;17.90;99.90
17859;DHT22;35426;30.698;104.050;2023-03-01T03:35:30;18.10;99.90
17859;DHT22;35426;30.698;104.050;2023-03-01T03:38:08;18.00;99.90
17859;DHT22;35426;30.698;104.050;2023-03-01T03:40:51;17.90;99.90
17859;DHT22;35426;30.698;104.050;2023-03-01T03:43:31;18.00;99.90
17859;DHT22;35426;30.698;104.050;2023-03-01T03:46:11;18.00;99.90
17859;DHT22;35426;30.698;104.050;2023-03-01T03:48:54;18.50;99.90
17859;DHT22;35426;30.698;104.050;2023-03-01T03:51:35;18.60;99.90
17859;DHT22;35426;30.698;104.050;2023-03-01T03:54:12;18.80;99.90
17859;DHT22;35426;30.698;104.050;2023-03-01T03:56:49;18.90;99.90
17859;DHT22;35426;30.698;104.050;2023-03-01T03:59:29;19.50;99.90
17859;DHT22;35426;30.698;104.050;2023-03-01T04:02:07;19.50;99.90
17859;DHT22;35426;30.698;104.050;2023-03-01T04:04:47;19.90;99.90
17859;DHT22;35426;30.698;104.050;2023-03-01T04:07:25;19.40;99.90
17859;DHT22;35426;30.698;104.050;2023-03-01T04:10:12;19.20;99.90
17859;DHT22;35426;30.698;104.050;2023-03-01T04:12:49;19.50;99.90
17859;DHT22;35426;30.698;104.050;2023-03-01T04:15:32;19.50;99.90
17859;DHT22;35426;30.698;104.050;2023-03-01T04:18:20;19.40;99.90
17859;DHT22;35426;30.698;104.050;2023-03-01T04:21:07;18.90;99.90
17859;DHT22;35426;30.698;104.050;2023-03-01T04:23:45;18.40;99.30
17859;DHT22;35426;30.698;104.050;2023-03-01T04:26:27;18.40;99.90
17859;DHT22;35426;30.698;104.050;2023-03-01T04:29:03;18.70;99.90
17859;DHT22;35426;30.698;104.050;2023-03-01T04:31:46;18.80;99.90
17859;DHT22;35426;30.698;104.050;2023-03-01T04:34:26;18.60;95.90
17859;DHT22;35426;30.698;104.050;2023-03-01T04:37:11;18.70;96.50
17859;DHT22;35426;30.698;104.050;2023-03-01T04:39:49;18.70;94.80
17859;DHT22;35426;30.698;104.050;2023-03-01T04:42:26;18.50;95.00
17859;DHT22;35426;30.698;104.050;2023-03-01T04:45:07;18.20;94.60
17859;DHT22;35426;30.698;104.050;2023-03-01T04:47:50;18.10;94.20
17859;DHT22;35426;30.698;104.050;2023-03-01T04:50:35;18.20;93.00
17859;DHT22;35426;30.698;104.050;2023-03-01T04:53:20;18.20;92.10
17859;DHT22;35426;30.698;104.050;2023-03-01T04:56:00;18.30;92.90
17859;DHT22;35426;30.698;104.050;2023-03-01T04:58:38;18.20;92.60
17859;DHT22;35426;30.698;104.050;2023-03-01T05:01:17;18.10;91.90
17859;DHT22;35426;30.698;104.050;2023-03-01T05:03:54;18.10;93.00
17859;DHT22;35426;30.698;104.050;2023-03-01T05:06:37;17.80;91.90
17859;DHT22;35426;30.698;104.050;2023-03-01T05:09:18;17.60;92.10
17859;DHT22;35426;30.698;104.050;2023-03-01T05:11:55;17.90;91.90
17859;DHT22;35426;30.698;104.050;2023-03-01T05:14:32;17.70;92.00
17859;DHT22;35426;30.698;104.050;2023-03-01T05:17:09;18.10;92.00
17859;DHT22;35426;30.698;104.050;2023-03-01T05:19:50;17.90;91.90
17859;DHT22;35426;30.698;104.050;2023-03-01T05:22:28;17.90;91.90
17859;DHT22;35426;30.698;104.050;2023-03-01T05:25:08;17.70;92.30
17859;DHT22;35426;30.698;104.050;2023-03-01T05:27:47;18.00;92.20
17859;DHT22;35426;30.698;104.050;2023-03-01T05:30:38;18.00;92.40
17859;DHT22;35426;30.698;104.050;2023-03-01T05:33:26;18.00;92.90
17859;DHT22;35426;30.698;104.050;2023-03-01T05:36:24;18.00;92.80
17859;DHT22;35426;30.698;104.050;2023-03-01T05:39:00;18.10;92.90
17859;DHT22;35426;30.698;104.050;2023-03-01T05:41:39;17.90;92.40
17859;DHT22;35426;30.698;104.050;2023-03-01T05:44:16;17.70;92.60
17859;DHT22;35426;30.698;104.050;2023-03-01T05:47:00;17.90;93.00
17859;DHT22;35426;30.698;104.050;2023-03-01T05:49:38;18.10;92.40
17859;DHT22;35426;30.698;104.050;2023-03-01T05:52:15;17.90;92.00
17859;DHT22;35426;30.698;104.050;2023-03-01T05:54:56;17.70;92.20
17859;DHT22;35426;30.698;104.050;2023-03-01T05:57:34;18.10;92.50
17859;DHT22;35426;30.698;104.050;2023-03-01T06:00:12;18.40;92.50
17859;DHT22;35426;30.698;104.050;2023-03-01T06:02:49;18.50;91.90
17859;DHT22;35426;30.698;104.050;2023-03-01T06:05:28;18.40;91.80
17859;DHT22;35426;30.698;104.050;2023-03-01T06:08:05;18.20;92.10
17859;DHT22;35426;30.698;104.050;2023-03-01T06:10:49;18.20;92.80
17859;DHT22;35426;30.698;104.050;2023-03-01T06:13:29;18.20;92.90
17859;DHT22;35426;30.698;104.050;2023-03-01T06:16:18;18.40;92.50
17859;DHT22;35426;30.698;104.050;2023-03-01T06:19:00;18.40;92.20
17859;DHT22;35426;30.698;104.050;2023-03-01T06:21:37;18.30;92.00
17859;DHT22;35426;30.698;104.050;2023-03-01T06:24:15;18.30;92.40
17859;DHT22;35426;30.698;104.050;2023-03-01T06:26:53;18.40;92.60
17859;DHT22;35426;30.698;104.050;2023-03-01T06:29:32;18.20;92.20
17859;DHT22;35426;30.698;104.050;2023-03-01T06:32:14;18.20;92.00
17859;DHT22;35426;30.698;104.050;2023-03-01T06:34:52;18.30;92.10
17859;DHT22;35426;30.698;104.050;2023-03-01T06:37:29;18.50;92.30
17859;DHT22;35426;30.698;104.050;2023-03-01T06:40:09;18.50;92.00
17859;DHT22;35426;30.698;104.050;2023-03-01T06:42:49;18.40;92.40
17859;DHT22;35426;30.698;104.050;2023-03-01T06:45:30;18.50;92.50
17859;DHT22;35426;30.698;104.050;2023-03-01T06:48:10;18.30;92.10
17859;DHT22;35426;30.698;104.050;2023-03-01T06:50:48;18.10;92.70
17859;DHT22;35426;30.698;104.050;2023-03-01T06:53:26;18.40;92.90
17859;DHT22;35426;30.698;104.050;2023-03-01T06:56:09;18.60;92.10
17859;DHT22;35426;30.698;104.050;2023-03-01T06:58:46;18.60;92.30
17859;DHT22;35426;30.698;104.050;2023-03-01T07:01:30;18.10;92.10
17859;DHT22;35426;30.698;104.050;2023-03-01T07:04:06;18.10;92.20
17859;DHT22;35426;30.698;104.050;2023-03-01T07:06:44;18.30;92.40
17859;DHT22;35426;30.698;104.050;2023-03-01T07:09:27;18.30;92.40
17859;DHT22;35426;30.698;104.050;2023-03-01T07:12:11;18.50;92.80
17859;DHT22;35426;30.698;104.050;2023-03-01T07:14:49;18.80;92.60
17859;DHT22;35426;30.698;104.050;2023-03-01T07:17:28;19.00;92.30
17859;DHT22;35426;30.698;104.050;2023-03-01T07:20:04;19.20;92.00
17859;DHT22;35426;30.698;104.050;2023-03-01T07:22:45;19.10;92.10
17859;DHT22;35426;30.698;104.050;2023-03-01T07:25:27;18.50;91.90
17859;DHT22;35426;30.698;104.050;2023-03-01T07:28:06;18.50;92.30
17859;DHT22;35426;30.698;104.050;2023-03-01T07:30:44;18.40;92.30
17859;DHT22;35426;30.698;104.050;2023-03-01T07:33:23;18.50;92.80
17859;DHT22;35426;30.698;104.050;2023-03-01T07:36:03;18.70;92.50
17859;DHT22;35426;30.698;104.050;2023-03-01T07:38:46;18.70;91.90
17859;DHT22;35426;30.698;104.050;2023-03-01T07:41:23;18.70;91.50
17859;DHT22;35426;30.698;104.050;2023-03-01T07:43:59;18.70;91.60
17859;DHT22;35426;30.698;104.050;2023-03-01T07:46:38;18.60;91.10
17859;DHT22;35426;30.698;104.050;2023-03-01T07:49:26;18.40;91.30
17859;DHT22;35426;30.698;104.050;2023-03-01T07:52:03;18.50;90.50
17859;DHT22;35426;30.698;104.050;2023-03-01T07:54:44;18.20;90.90
17859;DHT22;35426;30.698;104.050;2023-03-01T07:57:21;18.10;91.20
17859;DHT22;35426;30.698;104.050;2023-03-01T07:59:58;18.20;91.00
17859;DHT22;35426;30.698;104.050;2023-03-01T08:02:41;18.60;91.00
17859;DHT22;35426;30.698;104.050;2023-03-01T08:05:21;18.50;91.00
17859;DHT22;35426;30.698;104.050;2023-03-01T08:07:58;18.60;90.50
17859;DHT22;35426;30.698;104.050;2023-03-01T08:10:37;18.90;90.40
17859;DHT22;35426;30.698;104.050;2023-03-01T08:13:14;18.90;90.50
17859;DHT22;35426;30.698;104.050;2023-03-01T08:15:59;19.00;90.40
17859;DHT22;35426;30.698;104.050;2023-03-01T08:18:37;19.00;89.60
17859;DHT22;35426;30.698;104.050;2023-03-01T08:21:22;19.10;89.60
17859;DHT22;35426;30.698;104.050;2023-03-01T08:23:58;19.10;88.90
17859;DHT22;35426;30.698;104.050;2023-03-01T08:26:39;19.00;90.00
17859;DHT22;35426;30.698;104.050;2023-03-01T08:29:18;19.10;89.70
17859;DHT22;35426;30.698;104.050;2023-03-01T08:31:56;18.80;89.40
17859;DHT22;35426;30.698;104.050;2023-03-01T08:34:32;18.80;89.80
17859;DHT22;35426;30.698;104.050;2023-03-01T08:37:14;18.90;88.30
17859;DHT22;35426;30.698;104.050;2023-03-01T08:39:51;18.90;88.60
17859;DHT22;35426;30.698;104.050;2023-03-01T08:42:27;18.90;89.40
17859;DHT22;35426;30.698;104.050;2023-03-01T08:45:06;19.20;90.00
17859;DHT22;35426;30.698;104.050;2023-03-01T08:47:54;19.00;89.00
17859;DHT22;35426;30.698;104.050;2023-03-01T08:50:31;18.90;89.60
17859;DHT22;35426;30.698;104.050;2023-03-01T08:53:10;19.00;89.50
17859;DHT22;35426;30.698;104.050;2023-03-01T08:55:47;18.90;88.30
17859;DHT22;35426;30.698;104.050;2023-03-01T08:58:23;18.70;87.30
17859;DHT22;35426;30.698;104.050;2023-03-01T09:01:00;18.70;88.10
17859;DHT22;35426;30.698;104.050;2023-03-01T09:03:41;18.60;88.40
17859;DHT22;35426;30.698;104.050;2023-03-01T09:06:19;18.80;88.30
17859;DHT22;35426;30.698;104.050;2023-03-01T09:08:59;18.70;86.90
17859;DHT22;35426;30.698;104.050;2023-03-01T09:11:40;18.50;87.50
17859;DHT22;35426;30.698;104.050;2023-03-01T09:14:18;18.70;87.90
17859;DHT22;35426;30.698;104.050;2023-03-01T09:16:56;18.80;88.50
17859;DHT22;35426;30.698;104.050;2023-03-01T09:19:35;18.70;87.40
17859;DHT22;35426;30.698;104.050;2023-03-01T09:22:12;18.50;87.90
17859;DHT22;35426;30.698;104.050;2023-03-01T09:24:50;18.50;87.80
17859;DHT22;35426;30.698;104.050;2023-03-01T09:27:27;18.40;87.70
17859;DHT22;35426;30.698;104.050;2023-03-01T09:30:06;18.30;87.90
17859;DHT22;35426;30.698;104.050;2023-03-01T09:32:47;18.40;89.10
17859;DHT22;35426;30.698;104.050;2023-03-01T09:35:24;18.30;89.00
17859;DHT22;35426;30.698;104.050;2023-03-01T09:38:06;18.30;89.00
17859;DHT22;35426;30.698;104.050;2023-03-01T09:40:47;18.30;89.00
17859;DHT22;35426;30.698;104.050;2023-03-01T09:43:29;18.30;89.30
17859;DHT22;35426;30.698;104.050;2023-03-01T09:46:11;18.30;89.70
17859;DHT22;35426;30.698;104.050;2023-03-01T09:48:52;18.30;90.20
17859;DHT22;35426;30.698;104.050;2023-03-01T09:51:35;18.30;90.70
17859;DHT22;35426;30.698;104.050;2023-03-01T09:54:14;18.20;91.20
17859;DHT22;35426;30.698;104.050;2023-03-01T09:57:11;18.20;91.40
17859;DHT22;35426;30.698;104.050;2023-03-01T10:00:09;18.10;92.00
17859;DHT22;35426;30.698;104.050;2023-03-01T10:02:59;18.00;91.80
17859;DHT22;35426;30.698;104.050;2023-03-01T10:05:52;17.90;92.30
17859;DHT22;35426;30.698;104.050;2023-03-01T10:08:42;17.80;92.90
17859;DHT22;35426;30.698;104.050;2023-03-01T10:11:26;17.80;93.70
17859;DHT22;35426;30.698;104.050;2023-03-01T10:14:21;17.60;94.20
17859;DHT22;35426;30.698;104.050;2023-03-01T10:17:04;17.50;95.60
17859;DHT22;35426;30.698;104.050;2023-03-01T10:19:43;17.40;96.30
17859;DHT22;35426;30.698;104.050;2023-03-01T10:22:22;17.20;96.90
17859;DHT22;35426;30.698;104.050;2023-03-01T10:25:04;17.30;97.50
17859;DHT22;35426;30.698;104.050;2023-03-01T10:27:45;17.20;98.80
17859;DHT22;35426;30.698;104.050;2023-03-01T10:30:37;17.10;99.90
17859;DHT22;35426;30.698;104.050;2023-03-01T10:33:19;17.00;99.90
17859;DHT22;35426;30.698;104.050;2023-03-01T10:35:58;17.00;99.90
17859;DHT22;35426;30.698;104.050;2023-03-01T10:38:49;16.90;99.90
17859;DHT22;35426;30.698;104.050;2023-03-01T10:41:33;16.80;99.90
17859;DHT22;35426;30.698;104.050;2023-03-01T10:44:39;16.80;99.90
17859;DHT22;35426;30.698;104.050;2023-03-01T10:47:20;16.80;99.90
17859;DHT22;35426;30.698;104.050;2023-03-01T10:50:22;16.80;99.90
17859;DHT22;35426;30.698;104.050;2023-03-01T10:53:16;16.70;99.90
17859;DHT22;35426;30.698;104.050;2023-03-01T10:56:04;16.70;99.90
17859;DHT22;35426;30.698;104.050;2023-03-01T10:58:58;16.70;99.90
17859;DHT22;35426;30.698;104.050;2023-03-01T11:01:37;16.60;99.90
17859;DHT22;35426;30.698;104.050;2023-03-01T11:04:17;16.60;99.90
17859;DHT22;35426;30.698;104.050;2023-03-01T11:07:00;16.50;99.90
17859;DHT22;35426;30.698;104.050;2023-03-01T11:09:37;16.40;99.90
17859;DHT22;35426;30.698;104.050;2023-03-01T11:12:17;16.30;99.90
17859;DHT22;35426;30.698;104.050;2023-03-01T11:14:55;16.20;99.90
17859;DHT22;35426;30.698;104.050;2023-03-01T11:17:33;16.20;99.90
17859;DHT22;35426;30.698;104.050;2023-03-01T11:20:36;16.10;99.90
17859;DHT22;35426;30.698;104.050;2023-03-01T11:23:15;16.00;99.90
17859;DHT22;35426;30.698;104.050;2023-03-01T11:25:56;15.90;99.90
17859;DHT22;35426;30.698;104.050;2023-03-01T11:28:37;15.90;99.90
17859;DHT22;35426;30.698;104.050;2023-03-01T11:31:17;15.90;99.90
17859;DHT22;35426;30.698;104.050;2023-03-01T11:33:59;15.90;99.90
17859;DHT22;35426;30.698;104.050;2023-03-01T11:36:46;15.90;99.90
17859;DHT22;35426;30.698;104.050;2023-03-01T11:39:31;15.90;99.90
17859;DHT22;35426;30.698;104.050;2023-03-01T11:42:15;15.80;99.90
17859;DHT22;35426;30.698;104.050;2023-03-01T11:45:19;15.80;99.90
17859;DHT22;35426;30.698;104.050;2023-03-01T11:48:22;15.80;99.90
17859;DHT22;35426;30.698;104.050;2023-03-01T11:51:25;15.70;99.90
17859;DHT22;35426;30.698;104.050;2023-03-01T11:54:24;15.70;99.90
17859;DHT22;35426;30.698;104.050;2023-03-01T11:57:04;15.70;99.90
17859;DHT22;35426;30.698;104.050;2023-03-01T12:06:24;15.70;99.90
17859;DHT22;35426;30.698;104.050;2023-03-01T12:12:48;15.60;99.90
17859;DHT22;35426;30.698;104.050;2023-03-01T12:16:06;15.60;99.90
17859;DHT22;35426;30.698;104.050;2023-03-01T12:19:27;15.50;99.90
17859;DHT22;35426;30.698;104.050;2023-03-01T12:22:22;15.60;99.90
17859;DHT22;35426;30.698;104.050;2023-03-01T12:25:24;15.50;99.90
17859;DHT22;35426;30.698;104.050;2023-03-01T12:28:31;15.40;99.90
17859;DHT22;35426;30.698;104.050;2023-03-01T12:31:44;15.50;99.90
17859;DHT22;35426;30.698;104.050;2023-03-01T12:34:55;15.50;99.90
17859;DHT22;35426;30.698;104.050;2023-03-01T12:37:44;15.40;99.90
17859;DHT22;35426;30.698;104.050;2023-03-01T12:40:37;15.30;99.90
17859;DHT22;35426;30.698;104.050;2023-03-01T12:43:36;15.40;99.90
17859;DHT22;35426;30.698;104.050;2023-03-01T12:46:41;15.30;99.90
17859;DHT22;35426;30.698;104.050;2023-03-01T12:49:24;15.40;99.90
17859;DHT22;35426;30.698;104.050;2023-03-01T12:52:13;15.30;99.90
17859;DHT22;35426;30.698;104.050;2023-03-01T12:55:00;15.40;99.90
17859;DHT22;35426;30.698;104.050;2023-03-01T12:57:41;15.30;99.90
17859;DHT22;35426;30.698;104.050;2023-03-01T13:00:31;15.30;99.90
17859;DHT22;35426;30.698;104.050;2023-03-01T13:03:25;15.30;99.90
17859;DHT22;35426;30.698;104.050;2023-03-01T13:06:11;15.30;99.90
17859;DHT22;35426;30.698;104.050;2023-03-01T13:08:53;15.30;99.90
17859;DHT22;35426;30.698;104.050;2023-03-01T13:11:33;15.30;99.90
17859;DHT22;35426;30.698;104.050;2023-03-01T13:14:39;15.20;99.90
17859;DHT22;35426;30.698;104.050;2023-03-01T13:17:43;15.20;99.90
17859;DHT22;35426;30.698;104.050;2023-03-01T13:20:23;15.10;99.90
17859;DHT22;35426;30.698;104.050;2023-03-01T13:23:07;15.20;99.90
17859;DHT22;35426;30.698;104.050;2023-03-01T13:26:14;15.20;99.90
17859;DHT22;35426;30.698;104.050;2023-03-01T13:28:56;15.20;99.90
17859;DHT22;35426;30.698;104.050;2023-03-01T13:32:00;15.20;99.90
17859;DHT22;35426;30.698;104.050;2023-03-01T13:35:03;15.20;99.90
17859;DHT22;35426;30.698;104.050;2023-03-01T13:37:44;15.10;99.90
17859;DHT22;35426;30.698;104.050;2023-03-01T13:43:35;15.00;99.90
17859;DHT22;35426;30.698;104.050;2023-03-01T13:46:23;15.00;99.90
17859;DHT22;35426;30.698;104.050;2023-03-01T13:49:05;15.00;99.90
17859;DHT22;35426;30.698;104.050;2023-03-01T13:51:54;15.00;99.90
17859;DHT22;35426;30.698;104.050;2023-03-01T13:54:34;15.00;99.90
17859;DHT22;35426;30.698;104.050;2023-03-01T13:57:28;15.00;99.90
17859;DHT22;35426;30.698;104.050;2023-03-01T14:00:32;15.00;99.90
17859;DHT22;35426;30.698;104.050;2023-03-01T14:03:16;14.90;99.90
17859;DHT22;35426;30.698;104.050;2023-03-01T14:06:12;14.80;99.90
17859;DHT22;35426;30.698;104.050;2023-03-01T14:09:03;14.80;99.90
17859;DHT22;35426;30.698;104.050;2023-03-01T14:12:10;14.80;99.90
17859;DHT22;35426;30.698;104.050;2023-03-01T14:14:57;14.80;99.90
17859;DHT22;35426;30.698;104.050;2023-03-01T14:20:47;14.80;99.90
17859;DHT22;35426;30.698;104.050;2023-03-01T14:23:29;14.80;99.90
17859;DHT22;35426;30.698;104.050;2023-03-01T14:26:22;14.70;99.90
17859;DHT22;35426;30.698;104.050;2023-03-01T14:29:05;14.70;99.90
17859;DHT22;35426;30.698;104.050;2023-03-01T14:31:44;14.70;99.90
17859;DHT22;35426;30.698;104.050;2023-03-01T14:34:24;14.70;99.90
17859;DHT22;35426;30.698;104.050;2023-03-01T14:37:24;14.70;99.90
17859;DHT22;35426;30.698;104.050;2023-03-01T14:40:30;14.70;99.90
17859;DHT22;35426;30.698;104.050;2023-03-01T14:43:23;14.60;99.90
17859;DHT22;35426;30.698;104.050;2023-03-01T14:46:06;14.50;99.90
17859;DHT22;35426;30.698;104.050;2023-03-01T14:48:52;14.50;99.90
17859;DHT22;35426;30.698;104.050;2023-03-01T14:51:30;14.40;99.90
17859;DHT22;35426;30.698;104.050;2023-03-01T14:54:21;14.40;99.90
17859;DHT22;35426;30.698;104.050;2023-03-01T14:57:16;14.50;99.90
17859;DHT22;35426;30.698;104.050;2023-03-01T15:00:15;14.50;99.90
17859;DHT22;35426;30.698;104.050;2023-03-01T15:02:58;14.40;99.90
17859;DHT22;35426;30.698;104.050;2023-03-01T15:05:44;14.30;99.90
17859;DHT22;35426;30.698;104.050;2023-03-01T15:08:24;14.40;99.90
17859;DHT22;35426;30.698;104.050;2023-03-01T15:11:27;14.40;99.90
17859;DHT22;35426;30.698;104.050;2023-03-01T15:14:39;14.30;99.90
17859;DHT22;35426;30.698;104.050;2023-03-01T15:17:41;14.30;99.90
17859;DHT22;35426;30.698;104.050;2023-03-01T15:20:22;14.20;99.90
17859;DHT22;35426;30.698;104.050;2023-03-01T15:23:03;14.20;99.90
17859;DHT22;35426;30.698;104.050;2023-03-01T15:25:47;14.10;99.90
17859;DHT22;35426;30.698;104.050;2023-03-01T15:28:40;14.10;99.90
17859;DHT22;35426;30.698;104.050;2023-03-01T15:31:20;14.20;99.90
17859;DHT22;35426;30.698;104.050;2023-03-01T15:34:28;14.20;99.90
17859;DHT22;35426;30.698;104.050;2023-03-01T15:37:43;14.30;99.90
17859;DHT22;35426;30.698;104.050;2023-03-01T15:40:31;14.10;99.90
17859;DHT22;35426;30.698;104.050;2023-03-01T15:43:38;14.20;99.90
17859;DHT22;35426;30.698;104.050;2023-03-01T15:46:25;14.30;99.90
17859;DHT22;35426;30.698;104.050;2023-03-01T15:52:29;14.20;99.90
17859;DHT22;35426;30.698;104.050;2023-03-01T15:55:18;14.10;99.90
17859;DHT22;35426;30.698;104.050;2023-03-01T15:58:00;14.20;99.90
17859;DHT22;35426;30.698;104.050;2023-03-01T16:00:40;14.10;99.90
17859;DHT22;35426;30.698;104.050;2023-03-01T16:03:34;14.10;99.90
17859;DHT22;35426;30.698;104.050;2023-03-01T16:06:12;14.20;99.90
17859;DHT22;35426;30.698;104.050;2023-03-01T16:08:52;14.20;99.90
17859;DHT22;35426;30.698;104.050;2023-03-01T16:11:31;14.10;99.90
17859;DHT22;35426;30.698;104.050;2023-03-01T16:14:10;14.20;99.90
17859;DHT22;35426;30.698;104.050;2023-03-01T16:16:50;14.20;99.90
17859;DHT22;35426;30.698;104.050;2023-03-01T16:19:27;14.10;99.90
17859;DHT22;35426;30.698;104.050;2023-03-01T16:22:04;14.10;99.90
17859;DHT22;35426;30.698;104.050;2023-03-01T16:24:49;14.00;99.90
17859;DHT22;35426;30.698;104.050;2023-03-01T16:27:34;14.00;99.90
17859;DHT22;35426;30.698;104.050;2023-03-01T16:30:14;14.00;99.90
17859;DHT22;35426;30.698;104.050;2023-03-01T16:32:52;14.10;99.90
17859;DHT22;35426;30.698;104.050;2023-03-01T16:35:40;14.00;99.90
17859;DHT22;35426;30.698;104.050;2023-03-01T16:38:18;14.00;99.90
17859;DHT22;35426;30.698;104.050;2023-03-01T16:41:01;14.10;99.90
17859;DHT22;35426;30.698;104.050;2023-03-01T16:43:38;14.10;99.90
17859;DHT22;35426;30.698;104.050;2023-03-01T16:46:19;14.10;99.90
17859;DHT22;35426;30.698;104.050;2023-03-01T16:48:56;14.20;99.90
17859;DHT22;35426;30.698;104.050;2023-03-01T16:51:32;14.10;99.90
17859;DHT22;35426;30.698;104.050;2023-03-01T16:54:17;14.10;99.90
17859;DHT22;35426;30.698;104.050;2023-03-01T16:56:59;14.10;99.90
17859;DHT22;35426;30.698;104.050;2023-03-01T16:59:36;14.10;99.90
17859;DHT22;35426;30.698;104.050;2023-03-01T17:02:13;14.10;99.90